Terminal Aerodrome Forecast
Issued by NWS

Home | Current Version | Previous Version | Text Only | Print | Product List | Glossary On
Versions: 1 2 3 4 5 6 7 8 9 10 11 12 13 14 15 16 17
000
FTUS44 KCRP 021515 AAA
TAFLRD
TAF AMD
KLRD 021515Z 0215/0312 11007KT P6SM SCT012 BKN025
      TEMPO 0215/0217 BKN012
     FM021700 11008KT P6SM BKN035
     FM021900 12009KT P6SM BKN060
     FM030600 15008KT P6SM FEW025=

USA.gov is the U.S. government's official web portal to all federal, state and local government web resources and services.